sensor_id;sensor_type;location;lat;lon;timestamp;P1;durP1;ratioP1;P2;durP2;ratioP2
70832;SDS011;58452;59.418;17.962;2023-04-20T08:53:31;57.00;;;3.70;;
70832;SDS011;58452;59.418;17.962;2023-04-20T08:55:57;2.08;;;0.75;;
70832;SDS011;58452;59.418;17.962;2023-04-20T08:58:23;11.77;;;1.10;;
70832;SDS011;58452;59.418;17.962;2023-04-20T09:00:50;1.52;;;0.77;;
70832;SDS011;58452;59.418;17.962;2023-04-20T09:03:15;2.17;;;0.47;;
70832;SDS011;58452;59.418;17.962;2023-04-20T09:05:42;0.63;;;0.47;;
70832;SDS011;58452;59.418;17.962;2023-04-20T09:08:08;0.65;;;0.65;;
70832;SDS011;58452;59.418;17.962;2023-04-20T09:10:41;1.13;;;0.63;;
70832;SDS011;58452;59.418;17.962;2023-04-20T09:13:08;1.00;;;0.60;;
70832;SDS011;58452;59.418;17.962;2023-04-20T09:15:44;2.45;;;0.70;;
70832;SDS011;58452;59.418;17.962;2023-04-20T09:18:11;2.08;;;0.70;;
70832;SDS011;58452;59.418;17.962;2023-04-20T09:20:38;2.35;;;0.70;;
70832;SDS011;58452;59.418;17.962;2023-04-20T09:23:14;2.15;;;0.47;;
70832;SDS011;58452;59.418;17.962;2023-04-20T09:25:41;5.35;;;0.80;;
70832;SDS011;58452;59.418;17.962;2023-04-20T09:28:10;0.60;;;0.52;;
70832;SDS011;58452;59.418;17.962;2023-04-20T09:33:07;2.65;;;0.77;;
70832;SDS011;58452;59.418;17.962;2023-04-20T09:35:36;2.08;;;0.60;;
70832;SDS011;58452;59.418;17.962;2023-04-20T09:38:09;1.25;;;0.60;;
70832;SDS011;58452;59.418;17.962;2023-04-20T09:40:36;1.88;;;0.55;;
70832;SDS011;58452;59.418;17.962;2023-04-20T09:43:02;2.80;;;0.60;;
70832;SDS011;58452;59.418;17.962;2023-04-20T09:45:34;1.30;;;0.50;;
70832;SDS011;58452;59.418;17.962;2023-04-20T09:48:05;2.13;;;0.60;;
70832;SDS011;58452;59.418;17.962;2023-04-20T09:50:31;0.98;;;0.57;;
70832;SDS011;58452;59.418;17.962;2023-04-20T09:53:01;0.90;;;0.55;;
70832;SDS011;58452;59.418;17.962;2023-04-20T09:55:26;1.77;;;0.50;;
70832;SDS011;58452;59.418;17.962;2023-04-20T09:57:55;4.85;;;0.80;;
70832;SDS011;58452;59.418;17.962;2023-04-20T10:00:21;5.20;;;0.80;;
70832;SDS011;58452;59.418;17.962;2023-04-20T10:02:47;5.20;;;0.95;;
70832;SDS011;58452;59.418;17.962;2023-04-20T10:05:12;2.67;;;0.73;;
70832;SDS011;58452;59.418;17.962;2023-04-20T10:07:38;1.58;;;0.50;;
70832;SDS011;58452;59.418;17.962;2023-04-20T10:10:07;4.32;;;0.82;;
70832;SDS011;58452;59.418;17.962;2023-04-20T10:12:47;3.47;;;0.70;;
70832;SDS011;58452;59.418;17.962;2023-04-20T10:15:12;15.40;;;1.63;;
70832;SDS011;58452;59.418;17.962;2023-04-20T10:17:38;3.35;;;0.93;;
70832;SDS011;58452;59.418;17.962;2023-04-20T10:20:16;2.95;;;0.65;;
70832;SDS011;58452;59.418;17.962;2023-04-20T10:22:42;2.47;;;0.63;;
70832;SDS011;58452;59.418;17.962;2023-04-20T10:25:15;3.55;;;0.75;;
70832;SDS011;58452;59.418;17.962;2023-04-20T10:27:55;4.20;;;0.45;;
70832;SDS011;58452;59.418;17.962;2023-04-20T10:30:23;2.47;;;0.47;;
70832;SDS011;58452;59.418;17.962;2023-04-20T10:33:01;2.15;;;0.40;;
70832;SDS011;58452;59.418;17.962;2023-04-20T10:35:46;4.63;;;0.88;;
70832;SDS011;58452;59.418;17.962;2023-04-20T10:38:31;2.97;;;0.52;;
70832;SDS011;58452;59.418;17.962;2023-04-20T10:41:08;11.07;;;1.00;;
70832;SDS011;58452;59.418;17.962;2023-04-20T10:43:35;5.95;;;0.73;;
70832;SDS011;58452;59.418;17.962;2023-04-20T10:46:11;5.18;;;0.60;;
70832;SDS011;58452;59.418;17.962;2023-04-20T10:51:16;1.38;;;0.63;;
70832;SDS011;58452;59.418;17.962;2023-04-20T10:53:41;2.83;;;0.60;;
70832;SDS011;58452;59.418;17.962;2023-04-20T10:56:07;1.63;;;0.80;;
70832;SDS011;58452;59.418;17.962;2023-04-20T10:58:32;1.17;;;0.63;;
70832;SDS011;58452;59.418;17.962;2023-04-20T11:01:02;3.78;;;0.68;;
70832;SDS011;58452;59.418;17.962;2023-04-20T11:03:29;3.53;;;0.50;;
70832;SDS011;58452;59.418;17.962;2023-04-20T11:05:56;6.30;;;1.33;;
70832;SDS011;58452;59.418;17.962;2023-04-20T11:08:34;4.25;;;1.05;;
70832;SDS011;58452;59.418;17.962;2023-04-20T11:11:20;3.83;;;1.17;;
70832;SDS011;58452;59.418;17.962;2023-04-20T11:13:48;4.13;;;0.80;;
70832;SDS011;58452;59.418;17.962;2023-04-20T11:16:15;7.30;;;1.42;;
70832;SDS011;58452;59.418;17.962;2023-04-20T11:18:48;8.98;;;1.30;;
70832;SDS011;58452;59.418;17.962;2023-04-20T11:21:18;14.00;;;1.38;;
70832;SDS011;58452;59.418;17.962;2023-04-20T11:23:45;5.03;;;0.75;;
70832;SDS011;58452;59.418;17.962;2023-04-20T11:26:10;6.00;;;1.30;;
70832;SDS011;58452;59.418;17.962;2023-04-20T11:28:36;8.45;;;1.25;;
70832;SDS011;58452;59.418;17.962;2023-04-20T11:31:01;5.00;;;0.95;;
70832;SDS011;58452;59.418;17.962;2023-04-20T11:33:28;6.68;;;0.75;;
70832;SDS011;58452;59.418;17.962;2023-04-20T11:35:56;6.22;;;1.00;;
70832;SDS011;58452;59.418;17.962;2023-04-20T11:38:28;10.30;;;1.25;;
70832;SDS011;58452;59.418;17.962;2023-04-20T11:40:55;10.48;;;1.10;;
70832;SDS011;58452;59.418;17.962;2023-04-20T11:43:21;2.75;;;0.70;;
70832;SDS011;58452;59.418;17.962;2023-04-20T11:45:46;9.25;;;1.20;;
70832;SDS011;58452;59.418;17.962;2023-04-20T11:48:12;4.65;;;0.63;;
70832;SDS011;58452;59.418;17.962;2023-04-20T11:50:37;9.57;;;1.00;;
70832;SDS011;58452;59.418;17.962;2023-04-20T11:53:03;10.68;;;0.82;;
70832;SDS011;58452;59.418;17.962;2023-04-20T11:55:29;6.57;;;0.93;;
70832;SDS011;58452;59.418;17.962;2023-04-20T11:57:55;11.95;;;1.33;;
70832;SDS011;58452;59.418;17.962;2023-04-20T12:00:20;4.72;;;1.10;;
70832;SDS011;58452;59.418;17.962;2023-04-20T12:02:46;4.90;;;1.30;;
70832;SDS011;58452;59.418;17.962;2023-04-20T12:05:11;5.30;;;1.00;;
70832;SDS011;58452;59.418;17.962;2023-04-20T12:07:37;8.15;;;0.95;;
70832;SDS011;58452;59.418;17.962;2023-04-20T12:10:03;5.28;;;0.50;;
70832;SDS011;58452;59.418;17.962;2023-04-20T12:12:29;9.70;;;2.10;;
70832;SDS011;58452;59.418;17.962;2023-04-20T12:14:55;7.68;;;0.93;;
70832;SDS011;58452;59.418;17.962;2023-04-20T12:17:20;3.55;;;0.90;;
70832;SDS011;58452;59.418;17.962;2023-04-20T12:19:45;6.50;;;0.70;;
70832;SDS011;58452;59.418;17.962;2023-04-20T12:22:11;7.22;;;1.70;;
70832;SDS011;58452;59.418;17.962;2023-04-20T12:24:37;2.85;;;0.70;;
70832;SDS011;58452;59.418;17.962;2023-04-20T12:27:02;8.07;;;1.33;;
70832;SDS011;58452;59.418;17.962;2023-04-20T12:29:30;2.90;;;0.68;;
70832;SDS011;58452;59.418;17.962;2023-04-20T12:31:57;8.10;;;1.55;;
70832;SDS011;58452;59.418;17.962;2023-04-20T12:34:22;5.03;;;0.80;;
70832;SDS011;58452;59.418;17.962;2023-04-20T12:36:48;1.27;;;0.70;;
70832;SDS011;58452;59.418;17.962;2023-04-20T12:39:13;4.05;;;0.98;;
70832;SDS011;58452;59.418;17.962;2023-04-20T12:41:39;7.63;;;0.70;;
70832;SDS011;58452;59.418;17.962;2023-04-20T12:44:05;9.00;;;1.30;;
70832;SDS011;58452;59.418;17.962;2023-04-20T12:46:30;3.60;;;0.68;;
70832;SDS011;58452;59.418;17.962;2023-04-20T12:48:56;9.18;;;1.60;;
70832;SDS011;58452;59.418;17.962;2023-04-20T12:51:21;4.65;;;1.00;;
70832;SDS011;58452;59.418;17.962;2023-04-20T12:53:47;4.97;;;0.80;;
70832;SDS011;58452;59.418;17.962;2023-04-20T12:56:12;6.00;;;1.17;;
70832;SDS011;58452;59.418;17.962;2023-04-20T12:58:39;9.35;;;1.48;;
70832;SDS011;58452;59.418;17.962;2023-04-20T13:01:04;3.88;;;0.93;;
70832;SDS011;58452;59.418;17.962;2023-04-20T13:03:30;6.63;;;0.90;;
70832;SDS011;58452;59.418;17.962;2023-04-20T13:05:55;9.52;;;0.98;;
70832;SDS011;58452;59.418;17.962;2023-04-20T13:08:21;7.43;;;0.63;;
70832;SDS011;58452;59.418;17.962;2023-04-20T13:10:46;7.70;;;1.13;;
70832;SDS011;58452;59.418;17.962;2023-04-20T13:13:12;2.05;;;0.70;;
70832;SDS011;58452;59.418;17.962;2023-04-20T13:15:37;10.05;;;0.95;;
70832;SDS011;58452;59.418;17.962;2023-04-20T13:18:03;31.90;;;2.42;;
70832;SDS011;58452;59.418;17.962;2023-04-20T13:20:29;4.80;;;0.80;;
70832;SDS011;58452;59.418;17.962;2023-04-20T13:22:55;6.10;;;1.10;;
70832;SDS011;58452;59.418;17.962;2023-04-20T13:25:25;8.80;;;1.00;;
70832;SDS011;58452;59.418;17.962;2023-04-20T13:27:55;3.92;;;0.70;;
70832;SDS011;58452;59.418;17.962;2023-04-20T13:30:21;2.47;;;1.10;;
70832;SDS011;58452;59.418;17.962;2023-04-20T13:32:47;9.43;;;1.50;;
70832;SDS011;58452;59.418;17.962;2023-04-20T13:35:13;6.32;;;0.77;;
70832;SDS011;58452;59.418;17.962;2023-04-20T13:37:39;5.40;;;0.90;;
70832;SDS011;58452;59.418;17.962;2023-04-20T13:40:05;13.80;;;0.95;;
70832;SDS011;58452;59.418;17.962;2023-04-20T13:42:32;4.93;;;1.08;;
70832;SDS011;58452;59.418;17.962;2023-04-20T13:44:58;7.90;;;1.00;;
70832;SDS011;58452;59.418;17.962;2023-04-20T13:47:23;4.90;;;0.88;;
70832;SDS011;58452;59.418;17.962;2023-04-20T13:49:49;6.10;;;0.73;;
70832;SDS011;58452;59.418;17.962;2023-04-20T13:52:15;9.48;;;0.98;;
70832;SDS011;58452;59.418;17.962;2023-04-20T13:54:40;5.72;;;0.82;;
70832;SDS011;58452;59.418;17.962;2023-04-20T13:57:06;9.15;;;0.95;;
70832;SDS011;58452;59.418;17.962;2023-04-20T13:59:31;3.60;;;0.70;;
70832;SDS011;58452;59.418;17.962;2023-04-20T14:01:57;6.50;;;1.02;;
70832;SDS011;58452;59.418;17.962;2023-04-20T14:04:22;2.45;;;0.52;;
70832;SDS011;58452;59.418;17.962;2023-04-20T14:06:48;2.53;;;0.57;;
70832;SDS011;58452;59.418;17.962;2023-04-20T14:09:13;3.58;;;0.82;;
70832;SDS011;58452;59.418;17.962;2023-04-20T14:11:39;5.47;;;0.90;;
70832;SDS011;58452;59.418;17.962;2023-04-20T14:14:04;3.35;;;0.65;;
70832;SDS011;58452;59.418;17.962;2023-04-20T14:16:30;11.80;;;1.00;;
70832;SDS011;58452;59.418;17.962;2023-04-20T14:18:56;4.07;;;0.70;;
70832;SDS011;58452;59.418;17.962;2023-04-20T14:21:21;4.50;;;0.82;;
70832;SDS011;58452;59.418;17.962;2023-04-20T14:23:46;10.40;;;1.30;;
70832;SDS011;58452;59.418;17.962;2023-04-20T14:26:17;2.58;;;0.80;;
70832;SDS011;58452;59.418;17.962;2023-04-20T14:28:43;10.48;;;1.27;;
70832;SDS011;58452;59.418;17.962;2023-04-20T14:31:11;4.50;;;0.77;;
70832;SDS011;58452;59.418;17.962;2023-04-20T14:33:36;10.43;;;1.70;;
70832;SDS011;58452;59.418;17.962;2023-04-20T14:36:02;6.13;;;0.70;;
70832;SDS011;58452;59.418;17.962;2023-04-20T14:38:28;5.15;;;0.63;;
70832;SDS011;58452;59.418;17.962;2023-04-20T14:40:53;3.40;;;0.88;;
70832;SDS011;58452;59.418;17.962;2023-04-20T14:43:19;4.03;;;0.47;;
70832;SDS011;58452;59.418;17.962;2023-04-20T14:45:44;4.93;;;0.95;;
70832;SDS011;58452;59.418;17.962;2023-04-20T14:48:10;6.82;;;1.45;;
70832;SDS011;58452;59.418;17.962;2023-04-20T14:50:36;5.15;;;1.63;;
70832;SDS011;58452;59.418;17.962;2023-04-20T14:53:02;5.25;;;1.73;;
70832;SDS011;58452;59.418;17.962;2023-04-20T14:55:28;11.15;;;1.05;;
70832;SDS011;58452;59.418;17.962;2023-04-20T14:57:54;6.82;;;0.95;;
70832;SDS011;58452;59.418;17.962;2023-04-20T15:00:21;5.88;;;0.80;;
70832;SDS011;58452;59.418;17.962;2023-04-20T15:02:51;2.65;;;0.95;;
70832;SDS011;58452;59.418;17.962;2023-04-20T15:05:17;3.63;;;0.70;;
70832;SDS011;58452;59.418;17.962;2023-04-20T15:07:42;2.20;;;0.60;;
70832;SDS011;58452;59.418;17.962;2023-04-20T15:10:09;3.35;;;0.50;;
70832;SDS011;58452;59.418;17.962;2023-04-20T15:12:35;2.17;;;0.60;;
70832;SDS011;58452;59.418;17.962;2023-04-20T15:15:01;1.52;;;0.55;;
70832;SDS011;58452;59.418;17.962;2023-04-20T15:17:26;1.45;;;0.60;;
70832;SDS011;58452;59.418;17.962;2023-04-20T15:19:51;6.32;;;1.05;;
70832;SDS011;58452;59.418;17.962;2023-04-20T15:22:17;3.03;;;0.40;;
70832;SDS011;58452;59.418;17.962;2023-04-20T15:24:42;4.20;;;0.80;;
70832;SDS011;58452;59.418;17.962;2023-04-20T15:27:08;5.45;;;0.70;;
70832;SDS011;58452;59.418;17.962;2023-04-20T15:29:33;3.40;;;0.90;;
70832;SDS011;58452;59.418;17.962;2023-04-20T15:31:59;7.30;;;0.98;;
70832;SDS011;58452;59.418;17.962;2023-04-20T15:34:26;8.88;;;1.58;;
70832;SDS011;58452;59.418;17.962;2023-04-20T15:36:52;4.05;;;0.75;;
70832;SDS011;58452;59.418;17.962;2023-04-20T15:39:17;3.22;;;0.63;;
70832;SDS011;58452;59.418;17.962;2023-04-20T15:41:43;3.10;;;0.68;;
70832;SDS011;58452;59.418;17.962;2023-04-20T15:44:08;1.02;;;0.35;;
70832;SDS011;58452;59.418;17.962;2023-04-20T15:46:35;1.83;;;0.68;;
70832;SDS011;58452;59.418;17.962;2023-04-20T15:49:01;5.90;;;0.90;;
70832;SDS011;58452;59.418;17.962;2023-04-20T15:51:27;16.88;;;1.15;;
70832;SDS011;58452;59.418;17.962;2023-04-20T15:53:54;0.50;;;0.50;;
70832;SDS011;58452;59.418;17.962;2023-04-20T15:56:19;3.30;;;0.57;;
70832;SDS011;58452;59.418;17.962;2023-04-20T15:58:46;9.52;;;1.20;;
70832;SDS011;58452;59.418;17.962;2023-04-20T16:01:15;5.65;;;0.85;;
70832;SDS011;58452;59.418;17.962;2023-04-20T16:03:42;17.45;;;1.00;;
70832;SDS011;58452;59.418;17.962;2023-04-20T16:06:07;10.52;;;1.20;;
70832;SDS011;58452;59.418;17.962;2023-04-20T16:08:33;9.45;;;1.33;;
70832;SDS011;58452;59.418;17.962;2023-04-20T16:10:58;3.45;;;0.55;;
70832;SDS011;58452;59.418;17.962;2023-04-20T16:13:24;6.18;;;1.50;;
70832;SDS011;58452;59.418;17.962;2023-04-20T16:15:50;5.97;;;0.80;;
70832;SDS011;58452;59.418;17.962;2023-04-20T16:18:16;5.43;;;0.80;;
70832;SDS011;58452;59.418;17.962;2023-04-20T16:20:42;11.00;;;1.00;;
70832;SDS011;58452;59.418;17.962;2023-04-20T16:23:07;4.75;;;1.02;;
70832;SDS011;58452;59.418;17.962;2023-04-20T16:25:33;5.55;;;1.15;;
70832;SDS011;58452;59.418;17.962;2023-04-20T16:27:59;11.27;;;1.35;;
70832;SDS011;58452;59.418;17.962;2023-04-20T16:30:25;5.03;;;1.08;;
70832;SDS011;58452;59.418;17.962;2023-04-20T16:32:50;12.55;;;1.80;;
70832;SDS011;58452;59.418;17.962;2023-04-20T16:35:17;4.25;;;0.93;;
70832;SDS011;58452;59.418;17.962;2023-04-20T16:37:42;5.75;;;1.73;;
70832;SDS011;58452;59.418;17.962;2023-04-20T16:40:08;4.55;;;0.98;;
70832;SDS011;58452;59.418;17.962;2023-04-20T16:42:34;3.25;;;1.02;;
70832;SDS011;58452;59.418;17.962;2023-04-20T16:44:59;3.00;;;1.08;;
70832;SDS011;58452;59.418;17.962;2023-04-20T16:47:25;4.15;;;1.50;;
70832;SDS011;58452;59.418;17.962;2023-04-20T16:49:51;19.08;;;1.63;;
70832;SDS011;58452;59.418;17.962;2023-04-20T16:52:16;11.93;;;1.20;;
70832;SDS011;58452;59.418;17.962;2023-04-20T16:54:41;10.27;;;1.73;;
70832;SDS011;58452;59.418;17.962;2023-04-20T16:57:07;6.57;;;1.52;;
70832;SDS011;58452;59.418;17.962;2023-04-20T16:59:33;8.75;;;1.20;;
70832;SDS011;58452;59.418;17.962;2023-04-20T17:01:58;6.82;;;0.80;;
70832;SDS011;58452;59.418;17.962;2023-04-20T17:04:24;3.45;;;1.15;;
70832;SDS011;58452;59.418;17.962;2023-04-20T17:06:49;6.63;;;1.55;;
70832;SDS011;58452;59.418;17.962;2023-04-20T17:09:15;8.85;;;1.23;;
70832;SDS011;58452;59.418;17.962;2023-04-20T17:11:41;5.00;;;1.00;;
70832;SDS011;58452;59.418;17.962;2023-04-20T17:14:07;8.52;;;1.60;;
70832;SDS011;58452;59.418;17.962;2023-04-20T17:16:32;4.55;;;1.05;;
70832;SDS011;58452;59.418;17.962;2023-04-20T17:18:58;4.75;;;1.10;;
70832;SDS011;58452;59.418;17.962;2023-04-20T17:21:24;5.30;;;1.40;;
70832;SDS011;58452;59.418;17.962;2023-04-20T17:23:52;16.15;;;2.38;;
70832;SDS011;58452;59.418;17.962;2023-04-20T17:26:18;7.88;;;1.65;;
70832;SDS011;58452;59.418;17.962;2023-04-20T17:28:44;7.22;;;1.23;;
70832;SDS011;58452;59.418;17.962;2023-04-20T17:31:10;8.70;;;1.52;;
70832;SDS011;58452;59.418;17.962;2023-04-20T17:33:35;15.20;;;1.90;;
70832;SDS011;58452;59.418;17.962;2023-04-20T17:36:01;6.88;;;1.65;;
70832;SDS011;58452;59.418;17.962;2023-04-20T17:38:26;10.25;;;1.52;;
70832;SDS011;58452;59.418;17.962;2023-04-20T17:40:52;13.52;;;2.05;;
70832;SDS011;58452;59.418;17.962;2023-04-20T17:43:17;12.02;;;2.45;;
70832;SDS011;58452;59.418;17.962;2023-04-20T17:45:43;16.75;;;1.98;;
70832;SDS011;58452;59.418;17.962;2023-04-20T17:48:08;33.22;;;4.05;;
70832;SDS011;58452;59.418;17.962;2023-04-20T17:50:34;20.08;;;3.75;;
70832;SDS011;58452;59.418;17.962;2023-04-20T17:52:59;15.75;;;2.70;;
70832;SDS011;58452;59.418;17.962;2023-04-20T17:55:33;10.30;;;2.53;;
70832;SDS011;58452;59.418;17.962;2023-04-20T17:57:59;13.73;;;2.90;;
70832;SDS011;58452;59.418;17.962;2023-04-20T18:00:25;19.08;;;3.20;;
70832;SDS011;58452;59.418;17.962;2023-04-20T18:02:51;18.60;;;2.85;;
70832;SDS011;58452;59.418;17.962;2023-04-20T18:05:16;42.80;;;5.18;;
70832;SDS011;58452;59.418;17.962;2023-04-20T18:07:42;34.20;;;4.45;;
70832;SDS011;58452;59.418;17.962;2023-04-20T18:10:08;15.60;;;3.70;;
70832;SDS011;58452;59.418;17.962;2023-04-20T18:12:34;22.45;;;3.08;;
70832;SDS011;58452;59.418;17.962;2023-04-20T18:15:00;18.63;;;3.15;;
70832;SDS011;58452;59.418;17.962;2023-04-20T18:17:25;19.88;;;5.40;;
70832;SDS011;58452;59.418;17.962;2023-04-20T18:19:51;23.85;;;3.63;;
70832;SDS011;58452;59.418;17.962;2023-04-20T18:22:16;34.65;;;5.30;;
70832;SDS011;58452;59.418;17.962;2023-04-20T18:24:42;30.05;;;4.63;;
70832;SDS011;58452;59.418;17.962;2023-04-20T18:27:07;59.47;;;7.80;;
70832;SDS011;58452;59.418;17.962;2023-04-20T18:29:33;37.08;;;4.95;;
70832;SDS011;58452;59.418;17.962;2023-04-20T18:31:59;24.95;;;4.40;;
70832;SDS011;58452;59.418;17.962;2023-04-20T18:34:25;18.63;;;3.65;;
70832;SDS011;58452;59.418;17.962;2023-04-20T18:36:54;24.70;;;4.78;;
70832;SDS011;58452;59.418;17.962;2023-04-20T18:39:20;27.88;;;5.22;;
70832;SDS011;58452;59.418;17.962;2023-04-20T18:41:46;34.35;;;7.13;;
70832;SDS011;58452;59.418;17.962;2023-04-20T18:44:11;26.73;;;4.63;;
70832;SDS011;58452;59.418;17.962;2023-04-20T18:46:37;18.33;;;5.05;;
70832;SDS011;58452;59.418;17.962;2023-04-20T18:49:02;49.50;;;8.38;;
70832;SDS011;58452;59.418;17.962;2023-04-20T18:51:28;26.50;;;4.63;;
70832;SDS011;58452;59.418;17.962;2023-04-20T18:53:53;28.33;;;6.28;;
70832;SDS011;58452;59.418;17.962;2023-04-20T18:56:19;32.97;;;5.88;;
70832;SDS011;58452;59.418;17.962;2023-04-20T18:58:44;41.30;;;5.63;;
70832;SDS011;58452;59.418;17.962;2023-04-20T19:01:10;35.85;;;5.93;;
70832;SDS011;58452;59.418;17.962;2023-04-20T19:03:35;25.88;;;4.90;;
70832;SDS011;58452;59.418;17.962;2023-04-20T19:06:01;31.02;;;5.65;;
70832;SDS011;58452;59.418;17.962;2023-04-20T19:08:26;29.40;;;5.43;;
70832;SDS011;58452;59.418;17.962;2023-04-20T19:10:51;39.17;;;5.15;;
70832;SDS011;58452;59.418;17.962;2023-04-20T19:13:21;31.40;;;5.38;;
70832;SDS011;58452;59.418;17.962;2023-04-20T19:15:46;44.38;;;4.90;;
70832;SDS011;58452;59.418;17.962;2023-04-20T19:18:12;53.78;;;5.80;;
70832;SDS011;58452;59.418;17.962;2023-04-20T19:20:39;40.25;;;5.88;;
70832;SDS011;58452;59.418;17.962;2023-04-20T19:23:05;33.47;;;4.65;;
70832;SDS011;58452;59.418;17.962;2023-04-20T19:25:30;41.13;;;7.07;;
70832;SDS011;58452;59.418;17.962;2023-04-20T19:27:56;61.75;;;7.75;;
70832;SDS011;58452;59.418;17.962;2023-04-20T19:30:22;107.95;;;9.90;;
70832;SDS011;58452;59.418;17.962;2023-04-20T19:32:47;60.80;;;7.30;;
70832;SDS011;58452;59.418;17.962;2023-04-20T19:35:12;58.55;;;5.88;;
70832;SDS011;58452;59.418;17.962;2023-04-20T19:37:39;41.55;;;5.53;;
70832;SDS011;58452;59.418;17.962;2023-04-20T19:40:05;46.10;;;6.18;;
70832;SDS011;58452;59.418;17.962;2023-04-20T19:42:32;56.83;;;7.32;;
70832;SDS011;58452;59.418;17.962;2023-04-20T19:44:58;34.22;;;6.15;;
70832;SDS011;58452;59.418;17.962;2023-04-20T19:47:23;65.43;;;9.00;;
70832;SDS011;58452;59.418;17.962;2023-04-20T19:49:49;65.60;;;8.85;;
70832;SDS011;58452;59.418;17.962;2023-04-20T19:52:14;55.45;;;8.27;;
70832;SDS011;58452;59.418;17.962;2023-04-20T19:54:40;53.03;;;6.15;;
70832;SDS011;58452;59.418;17.962;2023-04-20T19:57:06;40.15;;;5.50;;
70832;SDS011;58452;59.418;17.962;2023-04-20T19:59:31;44.17;;;5.72;;
70832;SDS011;58452;59.418;17.962;2023-04-20T20:01:57;29.75;;;4.22;;
70832;SDS011;58452;59.418;17.962;2023-04-20T20:04:22;14.52;;;3.45;;
70832;SDS011;58452;59.418;17.962;2023-04-20T20:06:48;29.23;;;7.25;;
70832;SDS011;58452;59.418;17.962;2023-04-20T20:09:15;20.67;;;3.90;;
70832;SDS011;58452;59.418;17.962;2023-04-20T20:11:41;27.08;;;6.03;;
70832;SDS011;58452;59.418;17.962;2023-04-20T20:14:12;23.70;;;5.63;;
70832;SDS011;58452;59.418;17.962;2023-04-20T20:16:39;28.83;;;6.43;;
70832;SDS011;58452;59.418;17.962;2023-04-20T20:19:04;19.35;;;3.92;;
70832;SDS011;58452;59.418;17.962;2023-04-20T20:21:32;15.57;;;3.75;;
70832;SDS011;58452;59.418;17.962;2023-04-20T20:23:58;12.48;;;3.50;;
70832;SDS011;58452;59.418;17.962;2023-04-20T20:26:23;33.15;;;4.95;;
70832;SDS011;58452;59.418;17.962;2023-04-20T20:28:49;29.00;;;5.70;;
70832;SDS011;58452;59.418;17.962;2023-04-20T20:31:14;44.30;;;6.43;;
70832;SDS011;58452;59.418;17.962;2023-04-20T20:33:40;47.45;;;7.28;;
70832;SDS011;58452;59.418;17.962;2023-04-20T20:36:07;42.78;;;6.75;;
70832;SDS011;58452;59.418;17.962;2023-04-20T20:38:33;38.53;;;7.22;;
70832;SDS011;58452;59.418;17.962;2023-04-20T20:40:59;25.85;;;6.78;;
70832;SDS011;58452;59.418;17.962;2023-04-20T20:43:25;22.67;;;4.72;;
70832;SDS011;58452;59.418;17.962;2023-04-20T20:45:52;18.35;;;4.90;;
70832;SDS011;58452;59.418;17.962;2023-04-20T20:48:18;26.13;;;4.75;;
70832;SDS011;58452;59.418;17.962;2023-04-20T20:50:44;34.03;;;5.82;;
70832;SDS011;58452;59.418;17.962;2023-04-20T20:53:10;32.55;;;4.88;;
70832;SDS011;58452;59.418;17.962;2023-04-20T20:55:35;23.60;;;5.03;;
70832;SDS011;58452;59.418;17.962;2023-04-20T20:58:01;23.92;;;4.35;;
70832;SDS011;58452;59.418;17.962;2023-04-20T21:00:26;26.05;;;5.07;;
70832;SDS011;58452;59.418;17.962;2023-04-20T21:02:52;20.58;;;5.57;;
70832;SDS011;58452;59.418;17.962;2023-04-20T21:05:17;25.33;;;4.72;;
70832;SDS011;58452;59.418;17.962;2023-04-20T21:07:43;17.75;;;4.82;;
70832;SDS011;58452;59.418;17.962;2023-04-20T21:10:08;23.02;;;5.03;;
70832;SDS011;58452;59.418;17.962;2023-04-20T21:12:35;31.38;;;5.43;;
70832;SDS011;58452;59.418;17.962;2023-04-20T21:15:01;41.15;;;8.40;;
70832;SDS011;58452;59.418;17.962;2023-04-20T21:17:27;41.38;;;5.93;;
70832;SDS011;58452;59.418;17.962;2023-04-20T21:19:52;45.72;;;6.93;;
70832;SDS011;58452;59.418;17.962;2023-04-20T21:22:17;32.20;;;5.82;;
70832;SDS011;58452;59.418;17.962;2023-04-20T21:24:44;46.08;;;5.40;;
70832;SDS011;58452;59.418;17.962;2023-04-20T21:27:09;25.90;;;4.72;;
70832;SDS011;58452;59.418;17.962;2023-04-20T21:29:34;35.72;;;6.35;;
70832;SDS011;58452;59.418;17.962;2023-04-20T21:32:00;34.75;;;5.75;;
70832;SDS011;58452;59.418;17.962;2023-04-20T21:34:25;28.08;;;5.50;;
70832;SDS011;58452;59.418;17.962;2023-04-20T21:36:51;25.95;;;5.18;;
70832;SDS011;58452;59.418;17.962;2023-04-20T21:39:16;25.40;;;5.55;;
70832;SDS011;58452;59.418;17.962;2023-04-20T21:41:42;43.90;;;5.72;;
70832;SDS011;58452;59.418;17.962;2023-04-20T21:44:08;18.15;;;4.88;;
70832;SDS011;58452;59.418;17.962;2023-04-20T21:46:33;28.65;;;5.07;;
70832;SDS011;58452;59.418;17.962;2023-04-20T21:48:59;20.27;;;5.30;;
70832;SDS011;58452;59.418;17.962;2023-04-20T21:51:24;30.05;;;4.85;;
70832;SDS011;58452;59.418;17.962;2023-04-20T21:53:49;26.60;;;4.63;;
70832;SDS011;58452;59.418;17.962;2023-04-20T21:56:15;16.27;;;4.32;;
70832;SDS011;58452;59.418;17.962;2023-04-20T21:58:40;26.00;;;4.63;;
70832;SDS011;58452;59.418;17.962;2023-04-20T22:01:06;17.60;;;3.58;;
70832;SDS011;58452;59.418;17.962;2023-04-20T22:03:32;17.20;;;5.10;;
70832;SDS011;58452;59.418;17.962;2023-04-20T22:05:58;22.77;;;4.63;;
70832;SDS011;58452;59.418;17.962;2023-04-20T22:08:23;23.38;;;6.88;;
70832;SDS011;58452;59.418;17.962;2023-04-20T22:10:49;16.75;;;4.63;;
70832;SDS011;58452;59.418;17.962;2023-04-20T22:13:15;13.15;;;3.42;;
70832;SDS011;58452;59.418;17.962;2023-04-20T22:15:41;16.10;;;3.42;;
70832;SDS011;58452;59.418;17.962;2023-04-20T22:18:07;21.73;;;3.70;;
70832;SDS011;58452;59.418;17.962;2023-04-20T22:20:37;14.20;;;3.13;;
70832;SDS011;58452;59.418;17.962;2023-04-20T22:23:03;19.83;;;4.30;;
70832;SDS011;58452;59.418;17.962;2023-04-20T22:25:29;26.80;;;4.65;;
70832;SDS011;58452;59.418;17.962;2023-04-20T22:27:54;24.77;;;5.38;;
70832;SDS011;58452;59.418;17.962;2023-04-20T22:30:20;27.30;;;6.55;;
70832;SDS011;58452;59.418;17.962;2023-04-20T22:32:46;19.77;;;4.03;;
70832;SDS011;58452;59.418;17.962;2023-04-20T22:35:11;20.08;;;5.55;;
70832;SDS011;58452;59.418;17.962;2023-04-20T22:37:37;22.85;;;5.18;;
70832;SDS011;58452;59.418;17.962;2023-04-20T22:40:02;26.65;;;4.18;;
70832;SDS011;58452;59.418;17.962;2023-04-20T22:42:30;24.15;;;3.95;;
70832;SDS011;58452;59.418;17.962;2023-04-20T22:44:55;42.47;;;6.10;;
70832;SDS011;58452;59.418;17.962;2023-04-20T22:47:21;21.70;;;5.88;;
70832;SDS011;58452;59.418;17.962;2023-04-20T22:49:46;37.38;;;4.82;;
70832;SDS011;58452;59.418;17.962;2023-04-20T22:52:13;27.60;;;4.10;;
70832;SDS011;58452;59.418;17.962;2023-04-20T22:54:38;13.63;;;4.03;;
70832;SDS011;58452;59.418;17.962;2023-04-20T22:57:04;17.20;;;4.40;;
70832;SDS011;58452;59.418;17.962;2023-04-20T22:59:30;21.35;;;5.15;;
70832;SDS011;58452;59.418;17.962;2023-04-20T23:01:55;22.17;;;4.03;;
70832;SDS011;58452;59.418;17.962;2023-04-20T23:04:21;12.63;;;3.75;;
70832;SDS011;58452;59.418;17.962;2023-04-20T23:06:46;35.35;;;4.65;;
70832;SDS011;58452;59.418;17.962;2023-04-20T23:09:11;17.70;;;4.13;;
70832;SDS011;58452;59.418;17.962;2023-04-20T23:11:37;19.30;;;4.05;;
70832;SDS011;58452;59.418;17.962;2023-04-20T23:14:07;31.27;;;5.43;;
70832;SDS011;58452;59.418;17.962;2023-04-20T23:16:33;24.08;;;5.88;;
70832;SDS011;58452;59.418;17.962;2023-04-20T23:18:59;25.33;;;4.05;;
70832;SDS011;58452;59.418;17.962;2023-04-20T23:21:26;22.48;;;6.43;;